Terminal Aerodrome Forecast
Issued by NWS

Home | Current Version | Previous Version | Text Only | Print | Product List | Glossary On
Versions: 1 2 3 4 5 6 7 8 9 10 11 12 13 14 15
000
FTUS42 KTAE 021700
TAFECP
TAF
KECP 021730Z 0218/0318 08003KT P6SM VCSH BKN030 BKN250
     FM030900 17005KT 6SM BR VCSH BKN015
     FM031300 21005KT P6SM VCSH BKN020 PROB30 0313/0318 3SM TSRA
      BKN020CB=

USA.gov is the U.S. government's official web portal to all federal, state and local government web resources and services.